sensor_id;sensor_type;location;lat;lon;timestamp;pressure;altitude;pressure_sealevel;temperature;humidity
85244;BME280;75643;56.928;41.094;2024-01-15T00:00:55;98470.81;;;-12.43;74.58
85244;BME280;75643;56.928;41.094;2024-01-15T00:03:22;98469.97;;;-12.43;74.87
85244;BME280;75643;56.928;41.094;2024-01-15T00:05:48;98453.63;;;-12.47;74.10
85244;BME280;75643;56.928;41.094;2024-01-15T00:08:14;98466.00;;;-12.38;74.08
85244;BME280;75643;56.928;41.094;2024-01-15T00:10:41;98452.28;;;-12.40;74.70
85244;BME280;75643;56.928;41.094;2024-01-15T00:13:07;98440.09;;;-12.46;74.65
85244;BME280;75643;56.928;41.094;2024-01-15T00:15:33;98448.50;;;-12.32;74.58
85244;BME280;75643;56.928;41.094;2024-01-15T00:17:59;98456.41;;;-12.27;74.58
85244;BME280;75643;56.928;41.094;2024-01-15T00:20:25;98434.13;;;-12.31;74.06
85244;BME280;75643;56.928;41.094;2024-01-15T00:22:51;98447.19;;;-12.25;74.60
85244;BME280;75643;56.928;41.094;2024-01-15T00:25:17;98432.44;;;-12.31;74.17
85244;BME280;75643;56.928;41.094;2024-01-15T00:27:43;98439.53;;;-12.25;74.56
85244;BME280;75643;56.928;41.094;2024-01-15T00:30:10;98444.97;;;-12.19;73.86
85244;BME280;75643;56.928;41.094;2024-01-15T00:32:36;98435.97;;;-12.13;74.47
85244;BME280;75643;56.928;41.094;2024-01-15T00:35:02;98431.41;;;-12.18;73.96
85244;BME280;75643;56.928;41.094;2024-01-15T00:37:29;98434.06;;;-12.17;73.86
85244;BME280;75643;56.928;41.094;2024-01-15T00:39:55;98407.22;;;-12.26;74.48
85244;BME280;75643;56.928;41.094;2024-01-15T00:42:22;98431.16;;;-12.08;74.44
85244;BME280;75643;56.928;41.094;2024-01-15T00:44:48;98425.72;;;-12.14;74.73
85244;BME280;75643;56.928;41.094;2024-01-15T00:47:14;98431.16;;;-12.08;75.22
85244;BME280;75643;56.928;41.094;2024-01-15T00:49:40;98420.13;;;-12.07;74.51
85244;BME280;75643;56.928;41.094;2024-01-15T00:52:06;98416.88;;;-12.05;75.17
85244;BME280;75643;56.928;41.094;2024-01-15T00:54:32;98417.31;;;-11.97;75.22
85244;BME280;75643;56.928;41.094;2024-01-15T00:56:59;98422.41;;;-11.97;74.07
85244;BME280;75643;56.928;41.094;2024-01-15T00:59:25;98401.13;;;-11.97;75.11
85244;BME280;75643;56.928;41.094;2024-01-15T01:01:51;98405.50;;;-11.95;74.36
85244;BME280;75643;56.928;41.094;2024-01-15T01:04:17;98399.00;;;-11.90;74.56
85244;BME280;75643;56.928;41.094;2024-01-15T01:06:43;98403.22;;;-11.90;75.03
85244;BME280;75643;56.928;41.094;2024-01-15T01:09:09;98372.56;;;-12.08;74.58
85244;BME280;75643;56.928;41.094;2024-01-15T01:11:35;98395.50;;;-11.92;74.96
85244;BME280;75643;56.928;41.094;2024-01-15T01:14:01;98395.59;;;-11.90;75.01
85244;BME280;75643;56.928;41.094;2024-01-15T01:16:27;98371.44;;;-11.97;75.65
85244;BME280;75643;56.928;41.094;2024-01-15T01:18:53;98386.31;;;-11.88;75.11
85244;BME280;75643;56.928;41.094;2024-01-15T01:21:19;98357.38;;;-11.90;75.19
85244;BME280;75643;56.928;41.094;2024-01-15T01:23:45;98386.16;;;-11.75;75.39
85244;BME280;75643;56.928;41.094;2024-01-15T01:26:15;98380.09;;;-11.77;74.98
85244;BME280;75643;56.928;41.094;2024-01-15T01:28:42;98377.06;;;-11.70;75.14
85244;BME280;75643;56.928;41.094;2024-01-15T01:31:08;98374.59;;;-11.69;74.50
85244;BME280;75643;56.928;41.094;2024-01-15T01:33:34;98373.31;;;-11.61;74.99
85244;BME280;75643;56.928;41.094;2024-01-15T01:36:00;98382.06;;;-11.55;75.06
85244;BME280;75643;56.928;41.094;2024-01-15T01:38:26;98359.84;;;-11.58;74.76
85244;BME280;75643;56.928;41.094;2024-01-15T01:40:52;98369.56;;;-11.51;75.21
85244;BME280;75643;56.928;41.094;2024-01-15T01:43:18;98360.38;;;-11.47;75.09
85244;BME280;75643;56.928;41.094;2024-01-15T01:45:45;98370.75;;;-11.44;74.86
85244;BME280;75643;56.928;41.094;2024-01-15T01:48:11;98374.09;;;-11.45;75.45
85244;BME280;75643;56.928;41.094;2024-01-15T01:50:37;98363.22;;;-11.41;75.45
85244;BME280;75643;56.928;41.094;2024-01-15T01:53:03;98344.84;;;-11.52;75.41
85244;BME280;75643;56.928;41.094;2024-01-15T01:55:31;98353.19;;;-11.38;75.82
85244;BME280;75643;56.928;41.094;2024-01-15T01:57:59;98360.28;;;-11.33;75.84
85244;BME280;75643;56.928;41.094;2024-01-15T02:00:25;98356.06;;;-11.32;75.19
85244;BME280;75643;56.928;41.094;2024-01-15T02:02:51;98357.94;;;-11.28;75.04
85244;BME280;75643;56.928;41.094;2024-01-15T02:05:18;98341.09;;;-11.42;75.07
85244;BME280;75643;56.928;41.094;2024-01-15T02:07:46;98311.31;;;-11.43;75.15
85244;BME280;75643;56.928;41.094;2024-01-15T02:10:13;98349.06;;;-11.19;74.72
85244;BME280;75643;56.928;41.094;2024-01-15T02:12:40;98358.69;;;-11.13;76.04
85244;BME280;75643;56.928;41.094;2024-01-15T02:15:06;98336.09;;;-11.23;75.74
85244;BME280;75643;56.928;41.094;2024-01-15T02:17:33;98351.88;;;-11.14;74.96
85244;BME280;75643;56.928;41.094;2024-01-15T02:20:00;98355.59;;;-11.07;75.20
85244;BME280;75643;56.928;41.094;2024-01-15T02:22:26;98339.91;;;-11.15;75.54
85244;BME280;75643;56.928;41.094;2024-01-15T02:24:52;98344.22;;;-11.14;75.26
85244;BME280;75643;56.928;41.094;2024-01-15T02:27:19;98339.41;;;-11.08;75.17
85244;BME280;75643;56.928;41.094;2024-01-15T02:29:46;98330.88;;;-11.08;75.90
85244;BME280;75643;56.928;41.094;2024-01-15T02:32:12;98315.06;;;-11.19;75.89
85244;BME280;75643;56.928;41.094;2024-01-15T02:34:38;98309.31;;;-11.15;75.41
85244;BME280;75643;56.928;41.094;2024-01-15T02:37:04;98319.88;;;-11.07;75.40
85244;BME280;75643;56.928;41.094;2024-01-15T02:39:30;98328.75;;;-10.99;75.06
85244;BME280;75643;56.928;41.094;2024-01-15T02:41:56;98313.81;;;-11.09;74.90
85244;BME280;75643;56.928;41.094;2024-01-15T02:44:23;98338.38;;;-10.94;75.88
85244;BME280;75643;56.928;41.094;2024-01-15T02:46:49;98334.91;;;-10.96;75.76
85244;BME280;75643;56.928;41.094;2024-01-15T02:49:15;98337.59;;;-10.93;74.91
85244;BME280;75643;56.928;41.094;2024-01-15T02:51:41;98331.59;;;-10.93;75.40
85244;BME280;75643;56.928;41.094;2024-01-15T02:54:08;98335.13;;;-10.91;75.95
85244;BME280;75643;56.928;41.094;2024-01-15T02:56:34;98323.25;;;-10.91;75.80
85244;BME280;75643;56.928;41.094;2024-01-15T02:59:00;98334.53;;;-10.86;75.47
85244;BME280;75643;56.928;41.094;2024-01-15T03:01:26;98339.47;;;-10.89;74.93
85244;BME280;75643;56.928;41.094;2024-01-15T03:03:52;98332.91;;;-10.84;75.65
85244;BME280;75643;56.928;41.094;2024-01-15T03:06:18;98314.91;;;-10.87;75.64
85244;BME280;75643;56.928;41.094;2024-01-15T03:08:45;98325.41;;;-10.81;75.97
85244;BME280;75643;56.928;41.094;2024-01-15T03:11:11;98314.91;;;-10.87;75.97
85244;BME280;75643;56.928;41.094;2024-01-15T03:13:37;98314.03;;;-10.87;75.28
85244;BME280;75643;56.928;41.094;2024-01-15T03:16:05;98317.03;;;-10.78;76.01
85244;BME280;75643;56.928;41.094;2024-01-15T03:18:31;98316.59;;;-10.87;75.79
85244;BME280;75643;56.928;41.094;2024-01-15T03:20:58;98329.84;;;-10.77;75.84
85244;BME280;75643;56.928;41.094;2024-01-15T03:23:24;98307.25;;;-10.87;76.05
85244;BME280;75643;56.928;41.094;2024-01-15T03:25:50;98329.84;;;-10.77;76.08
85244;BME280;75643;56.928;41.094;2024-01-15T03:28:16;98323.28;;;-10.71;76.35
85244;BME280;75643;56.928;41.094;2024-01-15T03:30:43;98323.22;;;-10.73;76.08
85244;BME280;75643;56.928;41.094;2024-01-15T03:33:09;98317.16;;;-10.75;76.27
85244;BME280;75643;56.928;41.094;2024-01-15T03:35:35;98314.69;;;-10.73;75.93
85244;BME280;75643;56.928;41.094;2024-01-15T03:38:01;98314.78;;;-10.72;76.29
85244;BME280;75643;56.928;41.094;2024-01-15T03:40:28;98307.91;;;-10.73;76.14
85244;BME280;75643;56.928;41.094;2024-01-15T03:42:54;98297.03;;;-10.69;76.56
85244;BME280;75643;56.928;41.094;2024-01-15T03:45:20;98306.53;;;-10.66;75.79
85244;BME280;75643;56.928;41.094;2024-01-15T03:47:46;98303.81;;;-10.69;76.07
85244;BME280;75643;56.928;41.094;2024-01-15T03:50:13;98306.44;;;-10.68;75.91
85244;BME280;75643;56.928;41.094;2024-01-15T03:52:39;98299.78;;;-10.64;76.13
85244;BME280;75643;56.928;41.094;2024-01-15T03:55:05;98296.31;;;-10.66;75.92
85244;BME280;75643;56.928;41.094;2024-01-15T03:57:31;98294.47;;;-10.69;76.25
85244;BME280;75643;56.928;41.094;2024-01-15T03:59:57;98292.94;;;-10.65;75.84
85244;BME280;75643;56.928;41.094;2024-01-15T04:02:23;98291.22;;;-10.66;76.00
85244;BME280;75643;56.928;41.094;2024-01-15T04:04:49;98287.97;;;-10.62;76.13
85244;BME280;75643;56.928;41.094;2024-01-15T04:07:15;98272.78;;;-10.59;76.45
85244;BME280;75643;56.928;41.094;2024-01-15T04:09:41;98282.97;;;-10.61;76.12
85244;BME280;75643;56.928;41.094;2024-01-15T04:12:08;98278.66;;;-10.62;76.01
85244;BME280;75643;56.928;41.094;2024-01-15T04:14:34;98280.53;;;-10.58;75.67
85244;BME280;75643;56.928;41.094;2024-01-15T04:17:00;98264.13;;;-10.63;75.68
85244;BME280;75643;56.928;41.094;2024-01-15T04:19:26;98276.97;;;-10.61;75.89
85244;BME280;75643;56.928;41.094;2024-01-15T04:21:52;98272.78;;;-10.59;75.65
85244;BME280;75643;56.928;41.094;2024-01-15T04:24:18;98274.53;;;-10.58;75.75
85244;BME280;75643;56.928;41.094;2024-01-15T04:26:45;98250.81;;;-10.75;76.11
85244;BME280;75643;56.928;41.094;2024-01-15T04:29:11;98289.44;;;-10.50;76.00
85244;BME280;75643;56.928;41.094;2024-01-15T04:31:37;98272.19;;;-10.54;76.37
85244;BME280;75643;56.928;41.094;2024-01-15T04:34:03;98265.38;;;-10.55;76.36
85244;BME280;75643;56.928;41.094;2024-01-15T04:36:30;98271.66;;;-10.47;76.51
85244;BME280;75643;56.928;41.094;2024-01-15T04:38:56;98250.03;;;-10.55;76.37
85244;BME280;75643;56.928;41.094;2024-01-15T04:41:22;98275.03;;;-10.48;75.89
85244;BME280;75643;56.928;41.094;2024-01-15T04:43:49;98269.13;;;-10.47;76.34
85244;BME280;75643;56.928;41.094;2024-01-15T04:46:15;98276.94;;;-10.44;75.91
85244;BME280;75643;56.928;41.094;2024-01-15T04:48:41;98253.59;;;-10.51;76.04
85244;BME280;75643;56.928;41.094;2024-01-15T04:51:08;98255.63;;;-10.44;76.05
85244;BME280;75643;56.928;41.094;2024-01-15T04:53:35;98267.53;;;-10.45;76.27
85244;BME280;75643;56.928;41.094;2024-01-15T04:56:01;98275.84;;;-10.49;75.99
85244;BME280;75643;56.928;41.094;2024-01-15T04:58:27;98273.91;;;-10.54;76.43
85244;BME280;75643;56.928;41.094;2024-01-15T05:00:53;98278.34;;;-10.50;76.50
85244;BME280;75643;56.928;41.094;2024-01-15T05:03:20;98275.56;;;-10.55;75.93
85244;BME280;75643;56.928;41.094;2024-01-15T05:05:46;98283.28;;;-10.53;76.18
85244;BME280;75643;56.928;41.094;2024-01-15T05:08:14;98274.81;;;-10.52;76.14
85244;BME280;75643;56.928;41.094;2024-01-15T05:10:40;98280.88;;;-10.50;76.25
85244;BME280;75643;56.928;41.094;2024-01-15T05:13:06;98278.44;;;-10.47;76.57
85244;BME280;75643;56.928;41.094;2024-01-15T05:15:32;98288.53;;;-10.50;76.40
85244;BME280;75643;56.928;41.094;2024-01-15T05:17:59;98258.81;;;-10.67;77.03
85244;BME280;75643;56.928;41.094;2024-01-15T05:20:26;98280.09;;;-10.49;76.73
85244;BME280;75643;56.928;41.094;2024-01-15T05:22:52;98290.31;;;-10.49;77.02
85244;BME280;75643;56.928;41.094;2024-01-15T05:25:18;98287.00;;;-10.47;77.09
85244;BME280;75643;56.928;41.094;2024-01-15T05:27:44;98289.69;;;-10.44;76.25
85244;BME280;75643;56.928;41.094;2024-01-15T05:30:11;98284.16;;;-10.53;76.57
85244;BME280;75643;56.928;41.094;2024-01-15T05:32:37;98281.69;;;-10.51;76.82
85244;BME280;75643;56.928;41.094;2024-01-15T05:35:03;98280.59;;;-10.56;77.14
85244;BME280;75643;56.928;41.094;2024-01-15T05:37:29;98274.69;;;-10.55;76.54
85244;BME280;75643;56.928;41.094;2024-01-15T05:39:56;98279.13;;;-10.51;76.49
85244;BME280;75643;56.928;41.094;2024-01-15T05:42:22;98263.47;;;-10.59;76.70
85244;BME280;75643;56.928;41.094;2024-01-15T05:44:48;98284.16;;;-10.53;76.96
85244;BME280;75643;56.928;41.094;2024-01-15T05:47:14;98274.53;;;-10.58;77.20
85244;BME280;75643;56.928;41.094;2024-01-15T05:49:40;98274.69;;;-10.55;76.59
85244;BME280;75643;56.928;41.094;2024-01-15T05:52:06;98282.75;;;-10.46;77.04
85244;BME280;75643;56.928;41.094;2024-01-15T05:54:32;98268.03;;;-10.52;76.53
85244;BME280;75643;56.928;41.094;2024-01-15T05:56:59;98295.81;;;-10.40;76.25
85244;BME280;75643;56.928;41.094;2024-01-15T05:59:25;98274.50;;;-10.41;76.48
85244;BME280;75643;56.928;41.094;2024-01-15T06:01:51;98284.72;;;-10.41;76.27
85244;BME280;75643;56.928;41.094;2024-01-15T06:04:17;98274.31;;;-10.45;76.99
85244;BME280;75643;56.928;41.094;2024-01-15T06:06:43;98289.97;;;-10.38;76.79
85244;BME280;75643;56.928;41.094;2024-01-15T06:09:09;98275.19;;;-10.45;76.54
85244;BME280;75643;56.928;41.094;2024-01-15T06:11:35;98296.75;;;-10.38;76.57
85244;BME280;75643;56.928;41.094;2024-01-15T06:14:01;98283.03;;;-10.40;76.78
85244;BME280;75643;56.928;41.094;2024-01-15T06:16:28;98270.06;;;-10.45;76.79
85244;BME280;75643;56.928;41.094;2024-01-15T06:18:54;98260.66;;;-10.46;76.70
85244;BME280;75643;56.928;41.094;2024-01-15T06:21:21;98274.66;;;-10.38;76.85
85244;BME280;75643;56.928;41.094;2024-01-15T06:23:47;98262.34;;;-10.46;76.53
85244;BME280;75643;56.928;41.094;2024-01-15T06:26:13;98285.88;;;-10.34;76.04
85244;BME280;75643;56.928;41.094;2024-01-15T06:28:39;98271.41;;;-10.33;76.69
85244;BME280;75643;56.928;41.094;2024-01-15T06:31:08;98282.78;;;-10.27;76.25
85244;BME280;75643;56.928;41.094;2024-01-15T06:33:35;98289.94;;;-10.20;76.41
85244;BME280;75643;56.928;41.094;2024-01-15T06:36:01;98266.13;;;-10.38;76.06
85244;BME280;75643;56.928;41.094;2024-01-15T06:38:27;98274.16;;;-10.29;76.41
85244;BME280;75643;56.928;41.094;2024-01-15T06:40:53;98292.25;;;-10.24;76.17
85244;BME280;75643;56.928;41.094;2024-01-15T06:43:19;98280.34;;;-10.24;76.14
85244;BME280;75643;56.928;41.094;2024-01-15T06:45:45;98290.56;;;-10.24;76.04
85244;BME280;75643;56.928;41.094;2024-01-15T06:48:12;98291.41;;;-10.25;76.12
85244;BME280;75643;56.928;41.094;2024-01-15T06:50:43;98276.06;;;-10.25;75.69
85244;BME280;75643;56.928;41.094;2024-01-15T06:53:09;98283.78;;;-10.23;75.57
85244;BME280;75643;56.928;41.094;2024-01-15T06:55:38;98278.56;;;-10.26;75.56
85244;BME280;75643;56.928;41.094;2024-01-15T06:58:05;98271.09;;;-10.22;75.46
85244;BME280;75643;56.928;41.094;2024-01-15T07:00:31;98271.22;;;-10.19;75.61
85244;BME280;75643;56.928;41.094;2024-01-15T07:02:59;98284.38;;;-10.10;75.72
85244;BME280;75643;56.928;41.094;2024-01-15T07:05:25;98280.00;;;-10.12;75.58
85244;BME280;75643;56.928;41.094;2024-01-15T07:07:52;98266.09;;;-10.19;75.30
85244;BME280;75643;56.928;41.094;2024-01-15T07:10:18;98268.84;;;-10.14;75.73
85244;BME280;75643;56.928;41.094;2024-01-15T07:12:45;98288.25;;;-9.99;75.69
85244;BME280;75643;56.928;41.094;2024-01-15T07:15:20;98260.03;;;-10.02;74.94
85244;BME280;75643;56.928;41.094;2024-01-15T07:17:47;98250.66;;;-10.01;74.92
85244;BME280;75643;56.928;41.094;2024-01-15T07:20:27;98217.53;;;-10.20;74.43
85244;BME280;75643;56.928;41.094;2024-01-15T07:22:59;98223.94;;;-10.09;74.54
85244;BME280;75643;56.928;41.094;2024-01-15T07:25:25;98220.06;;;-10.00;73.50
85244;BME280;75643;56.928;41.094;2024-01-15T07:27:57;98253.19;;;-9.63;73.03
85244;BME280;75643;56.928;41.094;2024-01-15T07:30:23;98258.03;;;-9.48;73.08
85244;BME280;75643;56.928;41.094;2024-01-15T07:32:53;98292.38;;;-9.22;72.33
85244;BME280;75643;56.928;41.094;2024-01-15T07:35:22;98273.59;;;-9.23;73.42
85244;BME280;75643;56.928;41.094;2024-01-15T07:37:52;98248.94;;;-9.41;72.80
85244;BME280;75643;56.928;41.094;2024-01-15T07:40:24;98247.88;;;-9.46;73.08
85244;BME280;75643;56.928;41.094;2024-01-15T07:43:04;98277.41;;;-9.34;73.45
85244;BME280;75643;56.928;41.094;2024-01-15T07:45:51;98287.63;;;-9.34;73.52
85244;BME280;75643;56.928;41.094;2024-01-15T07:48:53;98232.28;;;-9.73;73.90
85244;BME280;75643;56.928;41.094;2024-01-15T07:51:41;98260.59;;;-9.48;73.83
85244;BME280;75643;56.928;41.094;2024-01-15T07:54:25;98261.97;;;-9.56;74.00
85244;BME280;75643;56.928;41.094;2024-01-15T07:56:59;98291.75;;;-9.37;74.03
85244;BME280;75643;56.928;41.094;2024-01-15T07:59:31;98231.72;;;-9.66;74.07
85244;BME280;75643;56.928;41.094;2024-01-15T08:01:59;98279.94;;;-9.55;74.57
85244;BME280;75643;56.928;41.094;2024-01-15T08:04:25;98221.28;;;-9.71;74.75
85244;BME280;75643;56.928;41.094;2024-01-15T08:06:54;98264.22;;;-9.64;75.47
85244;BME280;75643;56.928;41.094;2024-01-15T08:09:26;98301.72;;;-9.43;75.02
85244;BME280;75643;56.928;41.094;2024-01-15T08:12:17;98223.91;;;-9.90;74.92
85244;BME280;75643;56.928;41.094;2024-01-15T08:14:44;98223.81;;;-9.72;74.36
85244;BME280;75643;56.928;41.094;2024-01-15T08:17:11;98264.38;;;-9.59;74.94
85244;BME280;75643;56.928;41.094;2024-01-15T08:19:40;98254.88;;;-9.42;75.44
85244;BME280;75643;56.928;41.094;2024-01-15T08:22:07;98242.44;;;-9.54;75.34
85244;BME280;75643;56.928;41.094;2024-01-15T08:24:36;98217.63;;;-9.57;74.88
85244;BME280;75643;56.928;41.094;2024-01-15T08:27:07;98194.47;;;-9.60;74.26
85244;BME280;75643;56.928;41.094;2024-01-15T08:29:40;98225.81;;;-9.44;74.62
85244;BME280;75643;56.928;41.094;2024-01-15T08:32:07;98218.94;;;-9.45;74.60
85244;BME280;75643;56.928;41.094;2024-01-15T08:34:37;98234.16;;;-9.48;74.59
85244;BME280;75643;56.928;41.094;2024-01-15T08:37:09;98211.81;;;-9.32;73.80
85244;BME280;75643;56.928;41.094;2024-01-15T08:39:35;98283.03;;;-8.79;74.08
85244;BME280;75643;56.928;41.094;2024-01-15T08:42:07;98203.00;;;-9.18;73.54
85244;BME280;75643;56.928;41.094;2024-01-15T08:44:34;98241.44;;;-8.95;73.63
85244;BME280;75643;56.928;41.094;2024-01-15T08:47:00;98255.44;;;-8.86;73.58
85244;BME280;75643;56.928;41.094;2024-01-15T08:49:31;98234.78;;;-8.90;73.36
85244;BME280;75643;56.928;41.094;2024-01-15T08:51:58;98212.56;;;-9.14;73.13
85244;BME280;75643;56.928;41.094;2024-01-15T08:54:24;98266.81;;;-8.79;73.60
85244;BME280;75643;56.928;41.094;2024-01-15T08:56:51;98235.66;;;-8.90;73.27
85244;BME280;75643;56.928;41.094;2024-01-15T08:59:17;98260.72;;;-8.59;72.60
85244;BME280;75643;56.928;41.094;2024-01-15T09:01:50;98257.78;;;-8.70;72.54
85244;BME280;75643;56.928;41.094;2024-01-15T09:04:17;98192.66;;;-8.98;72.18
85244;BME280;75643;56.928;41.094;2024-01-15T09:06:46;98254.00;;;-8.57;72.38
85244;BME280;75643;56.928;41.094;2024-01-15T09:09:13;98241.09;;;-8.60;71.96
85244;BME280;75643;56.928;41.094;2024-01-15T09:11:40;98193.59;;;-8.74;72.50
85244;BME280;75643;56.928;41.094;2024-01-15T09:14:07;98282.28;;;-8.32;72.47
85244;BME280;75643;56.928;41.094;2024-01-15T09:16:34;98253.06;;;-8.37;71.79
85244;BME280;75643;56.928;41.094;2024-01-15T09:19:01;98196.03;;;-8.55;71.77
85244;BME280;75643;56.928;41.094;2024-01-15T09:21:27;98241.19;;;-8.09;71.35
85244;BME280;75643;56.928;41.094;2024-01-15T09:23:53;98239.88;;;-7.98;71.29
85244;BME280;75643;56.928;41.094;2024-01-15T09:26:19;98214.63;;;-8.11;70.26
85244;BME280;75643;56.928;41.094;2024-01-15T09:28:46;98183.34;;;-8.27;70.57
85244;BME280;75643;56.928;41.094;2024-01-15T09:31:12;98244.97;;;-8.00;70.64
85244;BME280;75643;56.928;41.094;2024-01-15T09:33:38;98251.13;;;-7.95;70.83
85244;BME280;75643;56.928;41.094;2024-01-15T09:36:08;98264.09;;;-7.66;69.78
85244;BME280;75643;56.928;41.094;2024-01-15T09:38:43;98256.72;;;-7.57;69.15
85244;BME280;75643;56.928;41.094;2024-01-15T09:41:09;98221.81;;;-7.77;69.46
85244;BME280;75643;56.928;41.094;2024-01-15T09:43:36;98193.19;;;-7.90;69.31
85244;BME280;75643;56.928;41.094;2024-01-15T09:46:04;98203.81;;;-7.79;68.77
85244;BME280;75643;56.928;41.094;2024-01-15T09:48:35;98277.06;;;-7.11;68.21
85244;BME280;75643;56.928;41.094;2024-01-15T09:51:11;98224.03;;;-7.37;68.15
85244;BME280;75643;56.928;41.094;2024-01-15T09:53:43;98181.84;;;-7.71;68.30
85244;BME280;75643;56.928;41.094;2024-01-15T09:56:10;98266.44;;;-7.49;69.52
85244;BME280;75643;56.928;41.094;2024-01-15T09:58:40;98210.63;;;-7.79;69.58
85244;BME280;75643;56.928;41.094;2024-01-15T10:01:08;98259.69;;;-7.45;69.05
85244;BME280;75643;56.928;41.094;2024-01-15T10:03:35;98219.56;;;-7.68;68.67
85244;BME280;75643;56.928;41.094;2024-01-15T10:06:04;98228.53;;;-7.81;69.21
85244;BME280;75643;56.928;41.094;2024-01-15T10:08:32;98257.66;;;-7.55;69.73
85244;BME280;75643;56.928;41.094;2024-01-15T10:10:58;98200.41;;;-8.03;69.58
85244;BME280;75643;56.928;41.094;2024-01-15T10:13:24;98234.81;;;-7.73;69.46
85244;BME280;75643;56.928;41.094;2024-01-15T10:15:53;98182.81;;;-7.93;69.52
85244;BME280;75643;56.928;41.094;2024-01-15T10:18:19;98221.84;;;-8.01;69.33
85244;BME280;75643;56.928;41.094;2024-01-15T10:21:08;98223.97;;;-8.13;69.98
85244;BME280;75643;56.928;41.094;2024-01-15T10:27:10;98198.59;;;-8.31;71.00
85244;BME280;75643;56.928;41.094;2024-01-15T10:29:41;98258.72;;;-7.98;71.50
85244;BME280;75643;56.928;41.094;2024-01-15T10:32:08;98219.66;;;-8.14;70.94
85244;BME280;75643;56.928;41.094;2024-01-15T10:34:39;98188.22;;;-8.34;71.70
85244;BME280;75643;56.928;41.094;2024-01-15T10:37:11;98200.28;;;-8.32;71.61
85244;BME280;75643;56.928;41.094;2024-01-15T10:39:38;98265.97;;;-7.86;70.83
85244;BME280;75643;56.928;41.094;2024-01-15T10:42:05;98201.44;;;-8.22;71.36
85244;BME280;75643;56.928;41.094;2024-01-15T10:44:32;98189.91;;;-8.35;71.66
85244;BME280;75643;56.928;41.094;2024-01-15T10:46:59;98212.50;;;-8.23;71.41
85244;BME280;75643;56.928;41.094;2024-01-15T10:49:26;98219.31;;;-8.23;71.87
85244;BME280;75643;56.928;41.094;2024-01-15T10:51:54;98245.75;;;-8.02;72.03
85244;BME280;75643;56.928;41.094;2024-01-15T10:54:23;98214.16;;;-8.25;71.67
85244;BME280;75643;56.928;41.094;2024-01-15T10:56:50;98251.56;;;-8.06;71.42
85244;BME280;75643;56.928;41.094;2024-01-15T10:59:20;98199.59;;;-8.26;72.10
85244;BME280;75643;56.928;41.094;2024-01-15T11:01:47;98260.69;;;-7.91;72.05
85244;BME280;75643;56.928;41.094;2024-01-15T11:04:14;98226.03;;;-8.03;71.79
85244;BME280;75643;56.928;41.094;2024-01-15T11:06:47;98267.22;;;-7.75;71.37
85244;BME280;75643;56.928;41.094;2024-01-15T11:09:14;98229.53;;;-8.01;71.45
85244;BME280;75643;56.928;41.094;2024-01-15T11:11:46;98185.72;;;-8.33;72.00
85244;BME280;75643;56.928;41.094;2024-01-15T11:14:41;98251.19;;;-7.93;72.05
85244;BME280;75643;56.928;41.094;2024-01-15T11:17:10;98258.06;;;-7.92;72.47
85244;BME280;75643;56.928;41.094;2024-01-15T11:19:48;98220.53;;;-8.14;72.80
85244;BME280;75643;56.928;41.094;2024-01-15T11:25:23;98210.28;;;-8.14;72.34
85244;BME280;75643;56.928;41.094;2024-01-15T11:27:56;98225.88;;;-8.08;73.01
85244;BME280;75643;56.928;41.094;2024-01-15T11:30:25;98249.53;;;-7.91;72.58
85244;BME280;75643;56.928;41.094;2024-01-15T11:32:52;98238.28;;;-7.95;73.01
85244;BME280;75643;56.928;41.094;2024-01-15T11:35:20;98235.03;;;-7.91;72.08
85244;BME280;75643;56.928;41.094;2024-01-15T11:40:20;98183.59;;;-8.44;72.73
85244;BME280;75643;56.928;41.094;2024-01-15T11:42:50;98167.00;;;-8.54;73.70
85244;BME280;75643;56.928;41.094;2024-01-15T11:45:19;98205.84;;;-8.43;74.78
85244;BME280;75643;56.928;41.094;2024-01-15T11:50:31;98197.56;;;-8.58;74.64
85244;BME280;75643;56.928;41.094;2024-01-15T11:53:01;98213.09;;;-8.54;75.10
85244;BME280;75643;56.928;41.094;2024-01-15T11:55:38;98223.47;;;-8.51;74.96
85244;BME280;75643;56.928;41.094;2024-01-15T11:58:09;98279.91;;;-8.25;75.19
85244;BME280;75643;56.928;41.094;2024-01-15T12:00:47;98262.66;;;-8.31;75.27
85244;BME280;75643;56.928;41.094;2024-01-15T12:03:15;98238.91;;;-8.49;75.11
85244;BME280;75643;56.928;41.094;2024-01-15T12:05:42;98246.72;;;-8.46;76.01
85244;BME280;75643;56.928;41.094;2024-01-15T12:08:11;98272.69;;;-8.37;75.36
85244;BME280;75643;56.928;41.094;2024-01-15T12:10:39;98237.75;;;-8.57;76.00
85244;BME280;75643;56.928;41.094;2024-01-15T12:13:16;98202.44;;;-8.66;75.47
85244;BME280;75643;56.928;41.094;2024-01-15T12:15:45;98191.59;;;-8.81;75.46
85244;BME280;75643;56.928;41.094;2024-01-15T12:18:15;98186.38;;;-8.84;75.73
85244;BME280;75643;56.928;41.094;2024-01-15T12:20:43;98252.69;;;-8.46;76.04
85244;BME280;75643;56.928;41.094;2024-01-15T12:23:09;98238.91;;;-8.49;75.86
85244;BME280;75643;56.928;41.094;2024-01-15T12:25:36;98232.75;;;-8.54;75.38
85244;BME280;75643;56.928;41.094;2024-01-15T12:28:03;98213.44;;;-8.68;75.57
85244;BME280;75643;56.928;41.094;2024-01-15T12:30:31;98210.88;;;-8.68;75.13
85244;BME280;75643;56.928;41.094;2024-01-15T12:33:03;98238.72;;;-8.54;76.09
85244;BME280;75643;56.928;41.094;2024-01-15T12:35:34;98269.47;;;-8.32;75.54
85244;BME280;75643;56.928;41.094;2024-01-15T12:38:05;98186.56;;;-8.80;75.68
85244;BME280;75643;56.928;41.094;2024-01-15T12:40:33;98230.00;;;-8.59;75.64
85244;BME280;75643;56.928;41.094;2024-01-15T12:43:00;98230.84;;;-8.60;75.96
85244;BME280;75643;56.928;41.094;2024-01-15T12:45:30;98219.25;;;-8.50;75.74
85244;BME280;75643;56.928;41.094;2024-01-15T12:47:58;98239.81;;;-8.47;75.55
85244;BME280;75643;56.928;41.094;2024-01-15T12:50:24;98200.78;;;-8.64;76.32
85244;BME280;75643;56.928;41.094;2024-01-15T12:52:56;98218.03;;;-8.60;76.25
85244;BME280;75643;56.928;41.094;2024-01-15T12:55:24;98252.34;;;-8.33;76.54
85244;BME280;75643;56.928;41.094;2024-01-15T12:57:54;98263.59;;;-8.28;76.13
85244;BME280;75643;56.928;41.094;2024-01-15T13:00:20;98248.97;;;-8.32;76.28